^^
Datos históricos de la estación: Murcia-Puente Tocinos
Diario Informe para Diciembre 28, 2019 Unidades:  Métrico    Ingés   Ambas
Diario Semanal Mensual Anual
  Máxima: Mínima: Promedio:
Temperatura: 16.2 °C 6.3 °C 10.6 °C
Punto de rocio: 10.7 °C 5.6 °C 8 °C
Humedad: 97% 65.5% 85%
Velocidad viento: 16.1km/h 0km/h 5.6km/h
Racha viento: 28.2km/h - -
Viento- - ESE
Presión: 1030.8 hPa 1027.1 hPa -
Precipitación: 0.0 mm    
 
 
Tabla de datos para Diciembre 28, 2019
Hora Temperatura Punto de rocio Presión Viento Velocidad viento Racha viento Humedad Intensidad lluvia(por hora) Nubes
00:04 9.6 °C 7.8 °C 1027.8 hPa ENE 4.1 km/h 8 km/h 88.3% 0.0 mm
00:09 9.6 °C 7.9 °C 1027.8 hPa ENE 3.9 km/h 6.4 km/h 89% 0.0 mm
00:14 9.6 °C 7.9 °C 1027.8 hPa ENE 2.9 km/h 4.7 km/h 89% 0.0 mm
00:19 9.7 °C 8 °C 1027.8 hPa ENE 2.2 km/h 4.8 km/h 89% 0.0 mm
00:24 9.7 °C 7.9 °C 1027.8 hPa ENE 2.2 km/h 4.8 km/h 89% 0.0 mm
00:29 9.6 °C 7.9 °C 1027.7 hPa ENE 2.2 km/h 5.8 km/h 89% 0.0 mm
00:34 9.6 °C 7.9 °C 1027.7 hPa ENE 2.2 km/h 6.4 km/h 89% 0.0 mm
00:39 9.5 °C 7.8 °C 1027.7 hPa ENE 2.2 km/h 6.4 km/h 89% 0.0 mm
00:44 9.4 °C 7.7 °C 1027.6 hPa Este 2.8 km/h 8 km/h 89% 0.0 mm
00:49 9.4 °C 7.7 °C 1027.6 hPa SE 3.2 km/h 8 km/h 89% 0.0 mm
00:54 9.4 °C 7.7 °C 1027.6 hPa SE 3.2 km/h 5.6 km/h 89% 0.0 mm
00:59 9.4 °C 7.7 °C 1027.5 hPa SE 3.2 km/h 5.6 km/h 89% 0.0 mm
01:04 9.4 °C 7.7 °C 1027.5 hPa SE 3 km/h 4.8 km/h 89% 0.0 mm
01:09 9.4 °C 7.6 °C 1027.5 hPa SE 2.9 km/h 3.9 km/h 88.6% 0.0 mm
01:14 9.3 °C 7.4 °C 1027.5 hPa SE 1.1 km/h 5.8 km/h 88% 0.0 mm
01:19 9 °C 7 °C 1027.5 hPa Calm   7.4 km/h 87.1% 0.0 mm
01:24 8.8 °C 6.9 °C 1027.5 hPa NNO 2.3 km/h 8 km/h 87.9% 0.0 mm
01:29 8.6 °C 6.8 °C 1027.5 hPa NO 3.9 km/h 8 km/h 88.4% 0.0 mm
01:34 8.4 °C 6.7 °C 1027.5 hPa NO 3.9 km/h 8 km/h 89% 0.0 mm
01:39 8.3 °C 6.8 °C 1027.5 hPa NO 3.9 km/h 4.8 km/h 89.9% 0.0 mm
01:44 8.3 °C 6.8 °C 1027.5 hPa NO 2.9 km/h 3.7 km/h 90% 0.0 mm
01:49 8.3 °C 6.9 °C 1027.5 hPa NO 2.2 km/h   90.8% 0.0 mm
01:54 8.4 °C 7 °C 1027.5 hPa NO 0.9 km/h 3.2 km/h 91% 0.0 mm
01:59 8.5 °C 7.2 °C 1027.4 hPa Calm   3.9 km/h 92% 0.0 mm
02:04 8.6 °C 7.4 °C 1027.4 hPa Calm   3.9 km/h 92% 0.0 mm
02:09 8.7 °C 7.5 °C 1027.4 hPa Calm   4.7 km/h 92% 0.0 mm
02:14 8.7 °C 7.5 °C 1027.3 hPa NO 1.3 km/h 5.6 km/h 92% 0.0 mm
02:19 8.8 °C 7.5 °C 1027.3 hPa ONO 2.2 km/h 7.4 km/h 92% 0.0 mm
02:24 8.8 °C 7.5 °C 1027.4 hPa Sur 2.8 km/h 8 km/h 91.7% 0.0 mm
02:29 8.7 °C 7.3 °C 1027.4 hPa SSE 3.2 km/h 7.4 km/h 91% 0.0 mm
02:34 8.7 °C 7.3 °C 1027.4 hPa SSE 3.2 km/h 8 km/h 91% 0.0 mm
02:39 8.7 °C 7.3 °C 1027.5 hPa SE 3.2 km/h 7.4 km/h 90.8% 0.0 mm
02:44 8.5 °C 7 °C 1027.5 hPa SE 3.2 km/h 8 km/h 90% 0.0 mm
02:49 8.4 °C 6.8 °C 1027.5 hPa SE 3.2 km/h 8 km/h 90% 0.0 mm
02:54 8.4 °C 6.8 °C 1027.5 hPa SSE 3.2 km/h 7.4 km/h 90% 0.0 mm
02:59 8.4 °C 6.8 °C 1027.5 hPa Sur 3.2 km/h 8 km/h 90% 0.0 mm
03:04 8.3 °C 6.8 °C 1027.5 hPa Sur 3.2 km/h 4.8 km/h 90% 0.0 mm
03:09 8.2 °C 6.7 °C 1027.5 hPa Sur 3.2 km/h 3.7 km/h 90% 0.0 mm
03:14 8.1 °C 6.6 °C 1027.5 hPa Sur 1.3 km/h 7.4 km/h 89.9% 0.0 mm
03:19 7.9 °C 6.2 °C 1027.5 hPa Calm   8 km/h 89% 0.0 mm
03:24 7.7 °C 6.1 °C 1027.6 hPa NO 1.9 km/h 8 km/h 89.6% 0.0 mm
03:29 7.6 °C 6.1 °C 1027.6 hPa NNE 3.2 km/h 7.4 km/h 90% 0.0 mm
03:34 7.6 °C 6.2 °C 1027.6 hPa NNE 3.6 km/h 8 km/h 90.7% 0.0 mm
03:39 7.6 °C 6.2 °C 1027.8 hPa NNE 3.9 km/h 5.6 km/h 91% 0.0 mm
03:44 7.6 °C 6.2 °C 1027.8 hPa NNE 3.3 km/h 4.8 km/h 91% 0.0 mm
03:49 7.6 °C 6.3 °C 1027.8 hPa NNE 2.9 km/h 4.8 km/h 91.2% 0.0 mm
03:54 7.6 °C 6.4 °C 1027.9 hPa NNE 1.2 km/h 3.7 km/h 92% 0.0 mm
03:59 7.6 °C 6.4 °C 1027.9 hPa Calm   5 km/h 92% 0.0 mm
04:04 7.6 °C 6.4 °C 1027.9 hPa NNE 1.5 km/h 7.4 km/h 91.9% 0.0 mm
04:09 7.6 °C 6.4 °C 1028.0 hPa SSO 2.2 km/h 8.4 km/h 91.9% 0.0 mm
04:14 7.6 °C 6.4 °C 1028.0 hPa SSE 3.9 km/h 8 km/h 92% 0.0 mm
04:19 7.7 °C 6.5 °C 1028.0 hPa SSE 5 km/h 8 km/h 92% 0.0 mm
04:24 7.7 °C 6.5 °C 1028.1 hPa SE 4.8 km/h 8 km/h 92% 0.0 mm
04:29 7.7 °C 6.5 °C 1028.1 hPa Este 4.6 km/h 6.4 km/h 92% 0.0 mm
04:34 7.7 °C 6.4 °C 1028.1 hPa Este 3.6 km/h 4.8 km/h 91.5% 0.0 mm
04:39 7.7 °C 6.3 °C 1028.1 hPa Este 2.9 km/h 5.6 km/h 91% 0.0 mm
04:44 7.6 °C 6.2 °C 1028.1 hPa ESE 3.1 km/h 7.4 km/h 91% 0.0 mm
04:49 7.4 °C 5.9 °C 1028.1 hPa SE 3.2 km/h 8 km/h 90.1% 0.0 mm
04:54 7.3 °C 5.8 °C 1028.2 hPa ESE 3.6 km/h 8 km/h 90.4% 0.0 mm
04:59 7.2 °C 5.7 °C 1028.2 hPa SE 3.9 km/h 7.4 km/h 90% 0.0 mm
05:04 7.2 °C 5.6 °C 1028.2 hPa Sur 3.9 km/h 8.4 km/h 90% 0.0 mm
05:09 7.1 °C 5.7 °C 1028.2 hPa Sur 3.9 km/h 8 km/h 91% 0.0 mm
05:14 7.2 °C 5.8 °C 1028.1 hPa Sur 4.5 km/h 8 km/h 91% 0.0 mm
05:19 7.2 °C 5.9 °C 1028.1 hPa SSE 5 km/h 8 km/h 91% 0.0 mm
05:24 7.3 °C 6 °C 1028.1 hPa SSE 3.9 km/h 8.4 km/h 91% 0.0 mm
05:29 7.4 °C 6.2 °C 1028.1 hPa SSE 3.2 km/h 9.5 km/h 91.8% 0.0 mm
05:34 7.4 °C 6 °C 1028.1 hPa SE 4.8 km/h 9.7 km/h 91.1% 0.0 mm
05:39 7.2 °C 6 °C 1028.2 hPa SE 5.8 km/h 9.7 km/h 91.7% 0.0 mm
05:44 7.2 °C 6.1 °C 1028.2 hPa SE 5.3 km/h 8 km/h 92.7% 0.0 mm
05:49 7.2 °C 6.2 °C 1028.2 hPa SE 5 km/h 8 km/h 93% 0.0 mm
05:54 7.2 °C 6.2 °C 1028.2 hPa SE 5 km/h 8.7 km/h 93% 0.0 mm
05:59 7.1 °C 6.1 °C 1028.0 hPa SE 5 km/h 9.7 km/h 93% 0.0 mm
06:04 7.1 °C 6.2 °C 1028.0 hPa SE 5 km/h 9.7 km/h 94% 0.0 mm
06:09 7.1 °C 6.2 °C 1028.1 hPa SE 5 km/h 9.7 km/h 94% 0.0 mm
06:14 7.1 °C 6.3 °C 1028.1 hPa SE 4.8 km/h 9.7 km/h 94.6% 0.0 mm
06:19 7.2 °C 6.4 °C 1028.1 hPa SSE 4.7 km/h 9.5 km/h 94.7% 0.0 mm
06:24 7.2 °C 6.4 °C 1028.1 hPa Sur 4.9 km/h 9.7 km/h 95% 0.0 mm
06:29 7.2 °C 6.5 °C 1028.1 hPa SSE 5 km/h 9.7 km/h 95% 0.0 mm
06:34 7.3 °C 6.5 °C 1028.1 hPa SSE 5.5 km/h 9.3 km/h 95% 0.0 mm
06:39 7.3 °C 6.6 °C 1028.2 hPa Sur 5.8 km/h 9.7 km/h 95% 0.0 mm
06:44 7.4 °C 6.7 °C 1028.2 hPa SSE 5.3 km/h 8.4 km/h 95.4% 0.0 mm
06:49 7.4 °C 6.7 °C 1028.2 hPa SSE 5 km/h 8 km/h 95.5% 0.0 mm
06:54 7.4 °C 6.8 °C 1028.2 hPa Sur 5 km/h 8 km/h 96% 0.0 mm
06:59 7.4 °C 6.8 °C 1028.2 hPa SSE 5 km/h 8 km/h 96% 0.0 mm
07:04 7.5 °C 6.8 °C 1028.2 hPa SSE 4.8 km/h 8 km/h 96% 0.0 mm
07:09 7.6 °C 7 °C 1028.4 hPa SE 4.6 km/h 8 km/h 96% 0.0 mm
07:14 7.6 °C 7 °C 1028.4 hPa SSE 3.8 km/h 6.4 km/h 96% 0.0 mm
07:19 7.6 °C 7 °C 1028.4 hPa SE 3.2 km/h 7.6 km/h 96% 0.0 mm
07:24 7.4 °C 6.8 °C 1028.7 hPa SSE 4.1 km/h 8.4 km/h 96% 0.0 mm
07:29 7.3 °C 6.7 °C 1028.7 hPa SSE 4.6 km/h 9.3 km/h 96% 0.0 mm
07:34 7.2 °C 6.6 °C 1028.7 hPa SSE 5.3 km/h 9.7 km/h 96% 0.0 mm
07:39 7.2 °C 6.6 °C 1028.7 hPa SSE 5.8 km/h 8 km/h 96% 0.0 mm
07:44 7.2 °C 6.6 °C 1028.7 hPa SE 5.1 km/h 8 km/h 96% 0.0 mm
07:49 7.1 °C 6.5 °C 1028.7 hPa SE 4.7 km/h 7.4 km/h 96% 0.0 mm
07:54 7 °C 6.4 °C 1028.8 hPa SE 4.2 km/h 8 km/h 96% 0.0 mm
07:59 6.9 °C 6.3 °C 1028.8 hPa SE 3.9 km/h 5 km/h 96% 0.0 mm
08:04 6.9 °C 6.3 °C 1028.8 hPa SSE 2.8 km/h 5.8 km/h 96% 0.0 mm
08:09 6.9 °C 6.4 °C 1029.0 hPa OSO 2.2 km/h 7.4 km/h 96.5% 0.0 mm
08:14 7 °C 6.5 °C 1029.0 hPa OSO 2.8 km/h 8 km/h 96.9% 0.0 mm
08:19 6.9 °C 6.4 °C 1029.0 hPa OSO 3.2 km/h 8.4 km/h 96% 0.0 mm
08:24 6.9 °C 6.3 °C 1029.2 hPa SO 4.1 km/h 8 km/h 96% 0.0 mm
08:29 6.9 °C 6.3 °C 1029.2 hPa SO 4.6 km/h 8 km/h 96% 0.0 mm
08:34 6.9 °C 6.3 °C 1029.2 hPa OSO 4.2 km/h 7.4 km/h 96% 0.0 mm
08:39 6.8 °C 6.2 °C 1029.2 hPa SSO 3.9 km/h 8.4 km/h 96% 0.0 mm
08:44 6.5 °C 5.9 °C 1029.2 hPa SSE 4.3 km/h 9.5 km/h 96% 0.0 mm
08:49 6.3 °C 5.8 °C 1029.2 hPa SSE 4.7 km/h 9.7 km/h 96% 0.0 mm
08:54 6.3 °C 5.7 °C 1029.3 hPa SSE 5.7 km/h 11.1 km/h 96% 0.0 mm
08:59 6.3 °C 5.7 °C 1029.3 hPa Sur 6.5 km/h 11.3 km/h 96.1% 0.0 mm
09:04 6.3 °C 5.8 °C 1029.3 hPa Sur 7.2 km/h 11.3 km/h 96.4% 0.0 mm
09:09 6.3 °C 5.8 °C 1029.3 hPa Sur 7.6 km/h 11.1 km/h 96.8% 0.0 mm
09:14 6.4 °C 5.9 °C 1029.2 hPa SSO 6.9 km/h 11.3 km/h 96.5% 0.0 mm
09:19 6.4 °C 5.9 °C 1029.2 hPa SSO 6.5 km/h 11.3 km/h 96.9% 0.0 mm
09:24 6.5 °C 6.1 °C 1029.2 hPa SSO 7.1 km/h 11.3 km/h 97% 0.0 mm
09:29 6.7 °C 6.1 °C 1029.1 hPa Sur 7.6 km/h 11.3 km/h 96.5% 0.0 mm
09:34 6.7 °C 6.1 °C 1029.1 hPa Sur 7.2 km/h 9.7 km/h 96% 0.0 mm
09:39 6.7 °C 6.2 °C 1029.3 hPa SSO 6.9 km/h 9.7 km/h 96% 0.0 mm
09:44 6.8 °C 6.3 °C 1029.3 hPa Sur 5.5 km/h 8 km/h 96% 0.0 mm
09:49 7 °C 6.3 °C 1029.3 hPa Oeste 4.6 km/h 8.4 km/h 95% 0.0 mm
09:54 7.1 °C 6.3 °C 1029.8 hPa SO 3.8 km/h 8 km/h 94.2% 0.0 mm
09:59 7.2 °C 6.2 °C 1029.8 hPa SSO 3.2 km/h 9.5 km/h 93.6% 0.0 mm
10:04 7.3 °C 6.2 °C 1029.8 hPa SSO 4.8 km/h 10 km/h 92.6% 0.0 mm
10:09 7.5 °C 6.3 °C 1030.0 hPa SSO 5.8 km/h 9.7 km/h 91.8% 0.0 mm
10:14 7.8 °C 6.3 °C 1030.0 hPa SSO 5.8 km/h 9.7 km/h 90.6% 0.0 mm
10:19 8 °C 6.3 °C 1030.0 hPa SSO 5.8 km/h 11.1 km/h 89.4% 0.0 mm
10:24 8.2 °C 6.3 °C 1030.0 hPa SO 6.5 km/h 11.3 km/h 88.2% 0.0 mm
10:29 8.4 °C 6.4 °C 1029.8 hPa SSO 6.9 km/h 11.3 km/h 87.4% 0.0 mm
10:34 8.6 °C 6.3 °C 1029.8 hPa OSO 6.2 km/h 13 km/h 85.9% 0.0 mm
10:39 8.7 °C 6.3 °C 1030.1 hPa SSO 5.8 km/h 13 km/h 85.1% 0.0 mm
10:44 8.8 °C 6.4 °C 1030.1 hPa SO 6.9 km/h 12.9 km/h 84.8% 0.0 mm
10:49 8.9 °C 6.5 °C 1030.1 hPa SSO 7.6 km/h 11.3 km/h 85% 0.0 mm
10:54 9.2 °C 6.6 °C 1030.1 hPa SSO 7.2 km/h 11.9 km/h 84.1% 0.0 mm
10:59 9.3 °C 6.7 °C 1030.1 hPa Sur 6.9 km/h 13 km/h 83.8% 0.0 mm
11:04 9.5 °C 6.8 °C 1030.1 hPa SSO 7.9 km/h 12.9 km/h 83% 0.0 mm
11:09 9.7 °C 7 °C 1030.1 hPa Sur 8.4 km/h 10 km/h 83.1% 0.0 mm
11:14 10 °C 7.1 °C 1030.1 hPa Sur 7.2 km/h 13 km/h 82% 0.0 mm
11:19 10.2 °C 7 °C 1030.1 hPa Sur 6.5 km/h 13 km/h 80.9% 0.0 mm
11:24 10.3 °C 7 °C 1030.1 hPa Sur 7.1 km/h 13 km/h 80.6% 0.0 mm
11:29 10.3 °C 7 °C 1029.8 hPa SSO 7.6 km/h 13 km/h 80% 0.0 mm
11:34 10.4 °C 7.2 °C 1029.8 hPa Sur 8.2 km/h 12.9 km/h 80.2% 0.0 mm
11:39 10.7 °C 7.4 °C 1029.8 hPa SSO 8.7 km/h 11.3 km/h 80% 0.0 mm
11:44 10.8 °C 7.4 °C 1029.6 hPa SSO 8 km/h 11.9 km/h 79.1% 0.0 mm
11:49 11.1 °C 7.5 °C 1029.6 hPa SSO 7.6 km/h 11.3 km/h 78.5% 0.0 mm
11:54 11.3 °C 7.6 °C 1029.6 hPa SSO 6.5 km/h 9.7 km/h 78% 0.0 mm
11:59 11.7 °C 7.7 °C 1029.3 hPa SO 5.8 km/h 8 km/h 76.2% 0.0 mm
12:04 12 °C 7.7 °C 1029.3 hPa SO 3.9 km/h 8.7 km/h 74.8% 0.0 mm
12:09 12.2 °C 7.7 °C 1029.3 hPa SSO 2.9 km/h 9.7 km/h 73.9% 0.0 mm
12:14 12.5 °C 7.8 °C 1029.0 hPa SSE 3.1 km/h 6.4 km/h 73% 0.0 mm
12:19 12.8 °C 7.7 °C 1029.0 hPa SSO 3.2 km/h 6.4 km/h 71.2% 0.0 mm
12:24 12.9 °C 7.8 °C 1029.0 hPa SSO 3 km/h 4.8 km/h 71% 0.0 mm
12:29 13.3 °C 7.9 °C 1028.7 hPa SE 2.9 km/h 5.8 km/h 69.9% 0.0 mm
12:34 13.7 °C 8 °C 1028.7 hPa ESE 2.5 km/h 6.4 km/h 68.4% 0.0 mm
12:39 14 °C 8 °C 1028.7 hPa ENE 2.2 km/h 7.6 km/h 67.5% 0.0 mm
12:44 14.2 °C 8.1 °C 1028.5 hPa ENE 2.8 km/h 8 km/h 67% 0.0 mm
12:49 14.3 °C 8.1 °C 1028.5 hPa ENE 3.2 km/h 8.4 km/h 66.4% 0.0 mm
12:54 14.2 °C 8.1 °C 1028.5 hPa NE 3.6 km/h 11.1 km/h 66.3% 0.0 mm
12:59 14.1 °C 8.3 °C 1028.4 hPa NE 3.9 km/h 11.3 km/h 67.9% 0.0 mm
13:04 14.1 °C 8.3 °C 1028.4 hPa NE 4.6 km/h 11.3 km/h 68% 0.0 mm
13:09 14.2 °C 8.4 °C 1028.4 hPa NE 5 km/h 9.5 km/h 68% 0.0 mm
13:14 14.3 °C 8.4 °C 1028.1 hPa NE 5 km/h 9.7 km/h 68% 0.0 mm
13:19 14.4 °C 8.6 °C 1028.1 hPa NNE 5 km/h 10 km/h 68% 0.0 mm
13:24 14.5 °C 8.6 °C 1028.1 hPa NNE 5 km/h 9.7 km/h 67.8% 0.0 mm
13:29 14.7 °C 8.8 °C 1027.9 hPa NE 5 km/h 10 km/h 68% 0.0 mm
13:34 14.8 °C 8.9 °C 1027.9 hPa NNE 5.5 km/h 11.9 km/h 67.8% 0.0 mm
13:39 14.9 °C 9.1 °C 1027.9 hPa NNE 5.8 km/h 12.2 km/h 68% 0.0 mm
13:44 15.1 °C 9.2 °C 1027.6 hPa NNE 6.5 km/h 13 km/h 68% 0.0 mm
13:49 15.1 °C 9.2 °C 1027.6 hPa NE 6.9 km/h 14.8 km/h 68% 0.0 mm
13:54 15.2 °C 9.3 °C 1027.6 hPa NE 8 km/h 16.7 km/h 68% 0.0 mm
13:59 15.2 °C 9.4 °C 1027.5 hPa NNE 8.7 km/h 19 km/h 68% 0.0 mm
14:04 15.3 °C 9.4 °C 1027.5 hPa NNE 9.6 km/h 20.9 km/h 68.1% 0.0 mm
14:09 15.3 °C 9.7 °C 1027.5 hPa NNE 10 km/h 20.9 km/h 69% 0.0 mm
14:14 15.5 °C 9.9 °C 1027.4 hPa NE 10.6 km/h 20.4 km/h 69% 0.0 mm
14:19 15.7 °C 10.1 °C 1027.4 hPa NE 11.1 km/h 22.2 km/h 69.3% 0.0 mm
14:24 15.9 °C 10.4 °C 1027.4 hPa NE 11.6 km/h 22.5 km/h 69.9% 0.0 mm
14:29 16.1 °C 10.3 °C 1027.4 hPa NE 11.9 km/h 24.1 km/h 68.6% 0.0 mm
14:34 16.1 °C 10.2 °C 1027.4 hPa NE 12.6 km/h 24.1 km/h 68% 0.0 mm
14:39 16.2 °C 10.3 °C 1027.4 hPa NE 13 km/h 22.5 km/h 68.3% 0.0 mm
14:44 16.2 °C 10.1 °C 1027.2 hPa NE 13.4 km/h 24.1 km/h 67.5% 0.0 mm
14:49 16.2 °C 10.2 °C 1027.2 hPa NNE 13.7 km/h 24.1 km/h 67.5% 0.0 mm
14:54 16.2 °C 10.3 °C 1027.2 hPa NNE 13.9 km/h 24.5 km/h 68% 0.0 mm
14:59 16.2 °C 10.3 °C 1027.1 hPa NNE 14 km/h 24.5 km/h 68% 0.0 mm
15:04 16.1 °C 10.4 °C 1027.1 hPa NNE 15.3 km/h 24.5 km/h 68.8% 0.0 mm
15:09 16 °C 10.4 °C 1027.1 hPa NNE 16.1 km/h 28.2 km/h 69.1% 0.0 mm
15:14 15.9 °C 10.3 °C 1027.1 hPa NE 16.1 km/h 27.4 km/h 69.5% 0.0 mm
15:19 15.9 °C 10.6 °C 1027.1 hPa NNE 16.1 km/h 24.1 km/h 70.5% 0.0 mm
15:24 15.9 °C 10.7 °C 1027.2 hPa NE 14.8 km/h 25.9 km/h 70.9% 0.0 mm
15:29 16 °C 10.6 °C 1027.2 hPa NNE 14 km/h 25.7 km/h 70.6% 0.0 mm
15:34 16 °C 10.6 °C 1027.2 hPa NE 13.4 km/h 24.1 km/h 70.3% 0.0 mm
15:39 16 °C 10.5 °C 1027.2 hPa NE 13 km/h 24.1 km/h 69.7% 0.0 mm
15:44 16.1 °C 10.3 °C 1027.2 hPa NE 12.3 km/h 22.5 km/h 68.7% 0.0 mm
15:49 16 °C 9.9 °C 1027.2 hPa NE 11.9 km/h 25.9 km/h 67% 0.0 mm
15:54 16.1 °C 10 °C 1027.4 hPa NE 12.6 km/h 25.7 km/h 67.3% 0.0 mm
15:59 16 °C 9.8 °C 1027.4 hPa NE 13 km/h 20.9 km/h 66.6% 0.0 mm
16:04 16 °C 9.9 °C 1027.4 hPa NE 12.5 km/h 20.9 km/h 67% 0.0 mm
16:09 16.1 °C 9.8 °C 1027.5 hPa NE 12.2 km/h 18.5 km/h 66.5% 0.0 mm
16:14 16.1 °C 9.6 °C 1027.5 hPa NE 10.8 km/h 20.4 km/h 65.7% 0.0 mm
16:19 15.9 °C 9.5 °C 1027.5 hPa NE 10 km/h 20.9 km/h 65.5% 0.0 mm
16:24 15.9 °C 9.6 °C 1027.6 hPa NE 10.6 km/h 19.3 km/h 66% 0.0 mm
16:29 15.9 °C 9.5 °C 1027.6 hPa NE 11.1 km/h 20.4 km/h 65.7% 0.0 mm
16:34 15.9 °C 9.7 °C 1027.6 hPa ENE 10.1 km/h 20.9 km/h 66.7% 0.0 mm
16:39 15.9 °C 9.9 °C 1027.6 hPa NE 9.5 km/h 13.7 km/h 67.4% 0.0 mm
16:44 15.8 °C 9.9 °C 1027.5 hPa NE 8.4 km/h 18.5 km/h 68.1% 0.0 mm
16:49 15.7 °C 10 °C 1027.5 hPa NE 7.6 km/h 19.3 km/h 69% 0.0 mm
16:54 15.6 °C 10.1 °C 1027.6 hPa NE 8.8 km/h 17.2 km/h 69.5% 0.0 mm
16:59 15.5 °C 10 °C 1027.6 hPa NE 9.5 km/h 17.7 km/h 70% 0.0 mm
17:04 15.4 °C 10 °C 1027.6 hPa NE 9.5 km/h 16.7 km/h 70% 0.0 mm
17:09 15.4 °C 9.9 °C 1027.9 hPa NE 9.5 km/h 16.1 km/h 70% 0.0 mm
17:14 15.3 °C 10 °C 1027.9 hPa NE 7.6 km/h 13 km/h 70.7% 0.0 mm
17:19 15.3 °C 10 °C 1027.9 hPa NE 6.5 km/h 12.9 km/h 71% 0.0 mm
17:24 15.2 °C 10 °C 1028.0 hPa ENE 6.1 km/h 11.3 km/h 71% 0.0 mm
17:29 15.1 °C 9.9 °C 1028.0 hPa ENE 5.8 km/h 11.3 km/h 71% 0.0 mm
17:34 15.1 °C 9.9 °C 1028.0 hPa ESE 5.3 km/h 8 km/h 71% 0.0 mm
17:39 14.9 °C 9.7 °C 1028.0 hPa ENE 5 km/h 11.1 km/h 71% 0.0 mm
17:44 14.8 °C 9.6 °C 1027.9 hPa ENE 5 km/h 11.3 km/h 71% 0.0 mm
17:49 14.7 °C 9.7 °C 1027.9 hPa Este 5 km/h 9.5 km/h 71.9% 0.0 mm
17:54 14.5 °C 9.6 °C 1028.1 hPa Este 5 km/h 11.9 km/h 72.3% 0.0 mm
17:59 14.3 °C 9.6 °C 1028.1 hPa Este 5 km/h 11.3 km/h 73.1% 0.0 mm
18:04 14.2 °C 9.6 °C 1028.1 hPa Este 6.2 km/h 11.3 km/h 74% 0.0 mm
18:09 14.1 °C 9.6 °C 1028.1 hPa ENE 6.9 km/h 10 km/h 74.5% 0.0 mm
18:14 13.9 °C 9.6 °C 1028.1 hPa NE 5.8 km/h 9.7 km/h 75% 0.0 mm
18:19 13.8 °C 9.7 °C 1028.1 hPa NE 5 km/h 9.7 km/h 75.9% 0.0 mm
18:24 13.7 °C 9.6 °C 1028.4 hPa NE 6.2 km/h 12.2 km/h 76.2% 0.0 mm
18:29 13.7 °C 9.7 °C 1028.4 hPa NE 6.9 km/h 14.8 km/h 77.1% 0.0 mm
18:34 13.4 °C 9.7 °C 1028.4 hPa NE 7.8 km/h 14.5 km/h 78.1% 0.0 mm
18:39 13.2 °C 9.6 °C 1028.6 hPa NE 8.4 km/h 11.3 km/h 79% 0.0 mm
18:44 12.9 °C 9.6 °C 1028.6 hPa NE 7.5 km/h 13 km/h 80.1% 0.0 mm
18:49 12.7 °C 9.6 °C 1028.6 hPa NNE 6.9 km/h 13 km/h 81.6% 0.0 mm
18:54 12.4 °C 9.6 °C 1028.8 hPa NE 7.8 km/h 12.9 km/h 82.7% 0.0 mm
18:59 12.3 °C 9.5 °C 1028.8 hPa NE 8.4 km/h 11.1 km/h 83.4% 0.0 mm
19:04 12.2 °C 9.5 °C 1028.8 hPa NNE 7.4 km/h 13.7 km/h 84.1% 0.0 mm
19:09 12 °C 9.5 °C 1029.1 hPa NNE 6.9 km/h 14.5 km/h 85% 0.0 mm
19:14 11.8 °C 9.5 °C 1029.1 hPa NNE 7.8 km/h 12.9 km/h 85.6% 0.0 mm
19:19 11.8 °C 9.6 °C 1029.1 hPa NNE 8.4 km/h 9.7 km/h 86% 0.0 mm
19:24 11.8 °C 9.7 °C 1029.1 hPa NNE 6.8 km/h 10 km/h 86.9% 0.0 mm
19:29 11.7 °C 9.6 °C 1029.1 hPa NNE 5.8 km/h 13 km/h 87% 0.0 mm
19:34 11.6 °C 9.7 °C 1029.1 hPa NNE 6.8 km/h 13 km/h 87.9% 0.0 mm
19:39 11.6 °C 9.7 °C 1029.4 hPa NE 7.6 km/h 14.8 km/h 88% 0.0 mm
19:44 11.6 °C 9.8 °C 1029.4 hPa NE 7.6 km/h 14.5 km/h 88.8% 0.0 mm
19:49 11.6 °C 9.8 °C 1029.4 hPa NE 7.6 km/h 12.9 km/h 89% 0.0 mm
19:54 11.6 °C 9.8 °C 1029.4 hPa NE 6.9 km/h 9.7 km/h 89% 0.0 mm
19:59 11.6 °C 9.8 °C 1029.4 hPa NE 6.5 km/h 9.7 km/h 89% 0.0 mm
20:04 11.6 °C 9.8 °C 1029.4 hPa NE 6 km/h 9.3 km/h 89% 0.0 mm
20:09 11.5 °C 9.7 °C 1029.5 hPa NE 5.8 km/h 9.7 km/h 89% 0.0 mm
20:14 11.4 °C 9.8 °C 1029.5 hPa NE 5.8 km/h 9.7 km/h 89.8% 0.0 mm
20:19 11.3 °C 9.8 °C 1029.5 hPa NNE 5.8 km/h 9.3 km/h 90% 0.0 mm
20:24 11.3 °C 9.6 °C 1029.6 hPa NNE 5.3 km/h 9.7 km/h 89.2% 0.0 mm
20:29 11.2 °C 9.5 °C 1029.6 hPa NNE 5 km/h 9.7 km/h 89.9% 0.0 mm
20:34 11 °C 9.5 °C 1029.6 hPa NE 5 km/h 9.7 km/h 90% 0.0 mm
20:39 11 °C 9.5 °C 1029.7 hPa NE 5 km/h 8 km/h 90.1% 0.0 mm
20:44 10.9 °C 9.5 °C 1029.7 hPa NE 3.9 km/h 6.4 km/h 91% 0.0 mm
20:49 10.9 °C 9.5 °C 1029.7 hPa NE 3.2 km/h 6.4 km/h 91% 0.0 mm
20:54 10.9 °C 9.5 °C 1029.9 hPa NNE 3.2 km/h 8.4 km/h 91% 0.0 mm
20:59 10.8 °C 9.4 °C 1029.9 hPa NNE 3.2 km/h 8 km/h 91% 0.0 mm
21:04 10.7 °C 9.3 °C 1029.9 hPa NE 4.3 km/h 8.4 km/h 91% 0.0 mm
21:09 10.7 °C 9.3 °C 1030.0 hPa NE 5 km/h 8 km/h 91% 0.0 mm
21:14 10.7 °C 9.3 °C 1030.0 hPa NE 4.8 km/h 6.4 km/h 91% 0.0 mm
21:19 10.7 °C 9.3 °C 1030.0 hPa NE 4.7 km/h 5.6 km/h 91% 0.0 mm
21:24 10.6 °C 9.2 °C 1030.1 hPa NNE 3.7 km/h 7.4 km/h 91% 0.0 mm
21:29 10.5 °C 9.1 °C 1030.1 hPa NE 3.2 km/h 8 km/h 91% 0.0 mm
21:34 10.4 °C 9 °C 1030.1 hPa NE 3.6 km/h 8 km/h 91% 0.0 mm
21:39 10.3 °C 8.9 °C 1030.3 hPa NE 3.9 km/h 7.4 km/h 91% 0.0 mm
21:44 10.2 °C 8.8 °C 1030.3 hPa NNE 3.5 km/h 8 km/h 91% 0.0 mm
21:49 10.1 °C 8.7 °C 1030.3 hPa NNE 3.2 km/h 8 km/h 91% 0.0 mm
21:54 10.1 °C 8.7 °C 1030.3 hPa NNE 3.6 km/h 8 km/h 91.5% 0.0 mm
21:59 9.9 °C 8.7 °C 1030.3 hPa NNE 3.9 km/h 7.6 km/h 92% 0.0 mm
22:04 9.9 °C 8.7 °C 1030.3 hPa NE 3.5 km/h 8 km/h 92% 0.0 mm
22:09 9.8 °C 8.6 °C 1030.5 hPa NE 3.2 km/h 8 km/h 92% 0.0 mm
22:14 9.8 °C 8.6 °C 1030.5 hPa ENE 3.6 km/h 8 km/h 92% 0.0 mm
22:19 9.7 °C 8.5 °C 1030.5 hPa ESE 3.9 km/h 8.4 km/h 92% 0.0 mm
22:24 9.7 °C 8.4 °C 1030.5 hPa ESE 3.5 km/h 8 km/h 92% 0.0 mm
22:29 9.7 °C 8.4 °C 1030.5 hPa SE 3.2 km/h 7.4 km/h 92% 0.0 mm
22:34 9.7 °C 8.5 °C 1030.5 hPa SE 3.2 km/h 8 km/h 92% 0.0 mm
22:39 9.9 °C 8.7 °C 1030.6 hPa SSE 3.2 km/h 11.1 km/h 92.4% 0.0 mm
22:44 9.9 °C 8.7 °C 1030.6 hPa Sur 5.2 km/h 11.3 km/h 92% 0.0 mm
22:49 9.9 °C 8.7 °C 1030.6 hPa Sur 6.5 km/h 9.5 km/h 92% 0.0 mm
22:54 9.9 °C 8.7 °C 1030.6 hPa Sur 5.6 km/h 9.7 km/h 92% 0.0 mm
22:59 9.9 °C 8.7 °C 1030.5 hPa Sur 5 km/h 9.7 km/h 92% 0.0 mm
23:04 10 °C 8.8 °C 1030.5 hPa SSO 4.8 km/h 8.4 km/h 92% 0.0 mm
23:09 10 °C 8.6 °C 1030.5 hPa SSO 4.6 km/h 8 km/h 91.1% 0.0 mm
23:14 10 °C 8.6 °C 1030.5 hPa SSO 4.7 km/h 8 km/h 91% 0.0 mm
23:19 10 °C 8.6 °C 1030.5 hPa SSO 4.7 km/h 6.4 km/h 91% 0.0 mm
23:24 10 °C 8.6 °C 1030.5 hPa SSO 3.8 km/h 8.4 km/h 91% 0.0 mm
23:29 10 °C 8.6 °C 1030.5 hPa SO 3.2 km/h 8 km/h 91% 0.0 mm
23:34 10 °C 8.6 °C 1030.5 hPa SO 4.1 km/h 8 km/h 91% 0.0 mm
23:39 10.1 °C 8.7 °C 1030.7 hPa SO 4.6 km/h 8 km/h 91% 0.0 mm
23:44 10.1 °C 8.7 °C 1030.7 hPa SO 3.8 km/h 6.4 km/h 91% 0.0 mm
23:49 10 °C 8.6 °C 1030.7 hPa SO 3.2 km/h 6.4 km/h 91% 0.0 mm
23:54 10 °C 8.6 °C 1030.8 hPa SSO 1.3 km/h 7.4 km/h 91% 0.0 mm
23:59 9.8 °C 8.3 °C 1030.8 hPa Calm   8 km/h 90% 0.0 mm
Murcia-Puente Tocinos, España
Compliments of Weather Underground - 3.5 mb

La estación de MeteoMurcia.com, publica sus datos en los siguientes proyectos:

Weather Underground PWS IMURCIAP2 Meteoclimatic www.awekas.at

W3Counter
Web Analytics